Kezdőlap
METAR-TAF:

METAR-TAF

Repülőterek :

Mécheria, Algéria

földrajzi szélesség: 34-56N, földrajzi hosszúság: 000-26W, magasság: 1149 m

Jelenlegi meteorológiai megfigyelések

A jelentés 45 perccel ezelõtt készült, 06:00 UTC
Déli szél 4 kt
Hőmérséklet 21°C
Páratartalom 26%
Légköri nyomás 1019 hPa
Látótávolság: 6000 m

METAR: DAAY 230600Z 19004KT 6000 NSC 21/01 Q1019

Idő: 07:45 (06:45 UTC)

Előrejelzés

A jelentés 1 órával és 45 perccel ezelõtt készült, 05:00 UTC
Az előrejelzés 23-én 06 óra UTC és 23-én 15 óra UTC között érvényes
Különbözõ irányokból fújó szél 2 kt
Látótávolság: 6000 m
23-én 06 óra UTC és 23-én 09 óra UTC között fokozatosan kialakuló
Dél-délkeleti szél 15 kt
Valószínűség 40% :
23-én 08 óra UTC és 23-én 15 óra UTC között ideiglenes
Dél-délkeleti szél 20 kt széllökések: 30 kt
Látótávolság: 3000 m
alacsony homokvihar,

TAF: DAAY 230500Z 2306/2315 VRB02KT 6000 NSC BECMG 2306/2309 15015KT PROB40 TEMPO 2308/2315 15020G30KT 3000 DRSA

Meteorológiai megfigyelések és előrejelzések több, mint 4000 repülőtéren (METAR és TAF jelentéseket).

A térképen piros és sárga pontok jelzik az elérhető meteorológiai állomásokat.

Mozgassa az egeret a pont fölött, hogy megjelenjen az állomás neve.

Azután kattintson az időjárási megfigyelések és előrejelzések megtekintéséhez.

A térkép megváltoztatása: kattintson a fekete keresztel jelölt zöld gombra ráközelítéshez, a vonallal jelölt zöld gombra távolításhoz, vagy a zöld nyilakra a szomszédos térképek eléréséhez.


METAR-TAF: